sensor_id;sensor_type;location;lat;lon;timestamp;pressure;altitude;pressure_sealevel;temperature;humidity
2000;BME280;1001;48.87406500;9.59633600;2023-01-24T00:00:39;96296.19;;;1.14;100.00
2000;BME280;1001;48.87406500;9.59633600;2023-01-24T00:03:06;96296.59;;;1.09;100.00
2000;BME280;1001;48.87406500;9.59633600;2023-01-24T00:05:37;96297.41;;;1.10;100.00
2000;BME280;1001;48.87406500;9.59633600;2023-01-24T00:08:04;96297.16;;;1.13;100.00
2000;BME280;1001;48.87406500;9.59633600;2023-01-24T00:10:30;96299.84;;;1.11;100.00
2000;BME280;1001;48.87406500;9.59633600;2023-01-24T00:12:59;96287.00;;;1.02;100.00
2000;BME280;1001;48.87406500;9.59633600;2023-01-24T00:15:26;96301.09;;;1.07;100.00
2000;BME280;1001;48.87406500;9.59633600;2023-01-24T00:17:52;96298.94;;;1.03;100.00
2000;BME280;1001;48.87406500;9.59633600;2023-01-24T00:20:19;96300.81;;;1.10;100.00
2000;BME280;1001;48.87406500;9.59633600;2023-01-24T00:22:46;96303.00;;;1.05;100.00
2000;BME280;1001;48.87406500;9.59633600;2023-01-24T00:25:12;96305.00;;;1.11;100.00
2000;BME280;1001;48.87406500;9.59633600;2023-01-24T00:27:39;96306.25;;;1.07;100.00
2000;BME280;1001;48.87406500;9.59633600;2023-01-24T00:30:08;96315.44;;;1.10;100.00
2000;BME280;1001;48.87406500;9.59633600;2023-01-24T00:32:35;96312.06;;;1.09;100.00
2000;BME280;1001;48.87406500;9.59633600;2023-01-24T00:35:02;96298.94;;;1.03;100.00
2000;BME280;1001;48.87406500;9.59633600;2023-01-24T00:37:28;96300.69;;;1.02;100.00
2000;BME280;1001;48.87406500;9.59633600;2023-01-24T00:39:55;96300.56;;;1.04;100.00
2000;BME280;1001;48.87406500;9.59633600;2023-01-24T00:42:22;96285.41;;;1.01;100.00
2000;BME280;1001;48.87406500;9.59633600;2023-01-24T00:44:48;96291.88;;;1.05;100.00
2000;BME280;1001;48.87406500;9.59633600;2023-01-24T00:47:16;96288.63;;;1.03;100.00
2000;BME280;1001;48.87406500;9.59633600;2023-01-24T00:49:43;96287.53;;;1.05;100.00
2000;BME280;1001;48.87406500;9.59633600;2023-01-24T00:52:09;96294.59;;;1.03;100.00
2000;BME280;1001;48.87406500;9.59633600;2023-01-24T00:54:36;96291.59;;;1.08;100.00
2000;BME280;1001;48.87406500;9.59633600;2023-01-24T00:57:03;96287.97;;;1.01;100.00
2000;BME280;1001;48.87406500;9.59633600;2023-01-24T00:59:29;96292.03;;;1.03;100.00
2000;BME280;1001;48.87406500;9.59633600;2023-01-24T01:01:56;96298.41;;;0.99;100.00
2000;BME280;1001;48.87406500;9.59633600;2023-01-24T01:04:24;96295.84;;;0.99;100.00
2000;BME280;1001;48.87406500;9.59633600;2023-01-24T01:06:50;96304.91;;;1.03;100.00
2000;BME280;1001;48.87406500;9.59633600;2023-01-24T01:09:17;96307.06;;;1.08;100.00
2000;BME280;1001;48.87406500;9.59633600;2023-01-24T01:11:43;96309.66;;;0.98;100.00
2000;BME280;1001;48.87406500;9.59633600;2023-01-24T01:14:10;96309.00;;;0.96;100.00
2000;BME280;1001;48.87406500;9.59633600;2023-01-24T01:16:36;96308.41;;;1.02;100.00
2000;BME280;1001;48.87406500;9.59633600;2023-01-24T01:19:04;96306.16;;;0.99;100.00
2000;BME280;1001;48.87406500;9.59633600;2023-01-24T01:21:33;96309.13;;;0.95;100.00
2000;BME280;1001;48.87406500;9.59633600;2023-01-24T01:23:59;96312.63;;;1.03;100.00
2000;BME280;1001;48.87406500;9.59633600;2023-01-24T01:26:26;96311.38;;;1.07;100.00
2000;BME280;1001;48.87406500;9.59633600;2023-01-24T01:28:53;96315.22;;;1.03;100.00
2000;BME280;1001;48.87406500;9.59633600;2023-01-24T01:31:19;96306.00;;;1.01;100.00
2000;BME280;1001;48.87406500;9.59633600;2023-01-24T01:33:46;96306.41;;;0.96;100.00
2000;BME280;1001;48.87406500;9.59633600;2023-01-24T01:36:13;96316.84;;;0.95;100.00
2000;BME280;1001;48.87406500;9.59633600;2023-01-24T01:38:41;96323.09;;;0.92;100.00
2000;BME280;1001;48.87406500;9.59633600;2023-01-24T01:41:08;96329.44;;;0.98;100.00
2000;BME280;1001;48.87406500;9.59633600;2023-01-24T01:43:34;96329.44;;;0.98;100.00
2000;BME280;1001;48.87406500;9.59633600;2023-01-24T01:46:07;96333.50;;;1.00;100.00
2000;BME280;1001;48.87406500;9.59633600;2023-01-24T01:48:45;96327.69;;;0.98;100.00
2000;BME280;1001;48.87406500;9.59633600;2023-01-24T01:51:16;96324.69;;;1.03;100.00
2000;BME280;1001;48.87406500;9.59633600;2023-01-24T01:53:47;96324.16;;;0.99;100.00
2000;BME280;1001;48.87406500;9.59633600;2023-01-24T01:56:22;96327.84;;;0.97;100.00
2000;BME280;1001;48.87406500;9.59633600;2023-01-24T01:58:51;96327.84;;;0.97;100.00
2000;BME280;1001;48.87406500;9.59633600;2023-01-24T02:01:20;96322.81;;;0.95;100.00
2000;BME280;1001;48.87406500;9.59633600;2023-01-24T02:03:52;96323.78;;;0.94;100.00
2000;BME280;1001;48.87406500;9.59633600;2023-01-24T02:06:29;96328.50;;;0.99;100.00
2000;BME280;1001;48.87406500;9.59633600;2023-01-24T02:08:59;96326.88;;;0.98;100.00
2000;BME280;1001;48.87406500;9.59633600;2023-01-24T02:11:27;96342.31;;;0.98;100.00
2000;BME280;1001;48.87406500;9.59633600;2023-01-24T02:14:09;96334.06;;;1.04;100.00
2000;BME280;1001;48.87406500;9.59633600;2023-01-24T02:16:55;96334.88;;;0.95;100.00
2000;BME280;1001;48.87406500;9.59633600;2023-01-24T02:19:44;96331.06;;;0.99;100.00
2000;BME280;1001;48.87406500;9.59633600;2023-01-24T02:22:15;96329.84;;;1.03;100.00
2000;BME280;1001;48.87406500;9.59633600;2023-01-24T02:24:52;96331.06;;;0.99;100.00
2000;BME280;1001;48.87406500;9.59633600;2023-01-24T02:27:26;96337.84;;;1.00;100.00
2000;BME280;1001;48.87406500;9.59633600;2023-01-24T02:29:53;96333.34;;;1.02;100.00
2000;BME280;1001;48.87406500;9.59633600;2023-01-24T02:32:21;96346.38;;;1.00;100.00
2000;BME280;1001;48.87406500;9.59633600;2023-01-24T02:34:48;96337.28;;;1.06;100.00
2000;BME280;1001;48.87406500;9.59633600;2023-01-24T02:37:14;96339.63;;;0.99;100.00
2000;BME280;1001;48.87406500;9.59633600;2023-01-24T02:39:45;96353.28;;;1.00;100.00
2000;BME280;1001;48.87406500;9.59633600;2023-01-24T02:42:17;96346.53;;;0.99;100.00
2000;BME280;1001;48.87406500;9.59633600;2023-01-24T02:44:52;96353.00;;;1.03;100.00
2000;BME280;1001;48.87406500;9.59633600;2023-01-24T02:47:26;96351.38;;;1.02;100.00
2000;BME280;1001;48.87406500;9.59633600;2023-01-24T02:49:57;96361.69;;;1.02;100.00
2000;BME280;1001;48.87406500;9.59633600;2023-01-24T02:52:24;96353.44;;;0.98;100.00
2000;BME280;1001;48.87406500;9.59633600;2023-01-24T02:55:08;96355.88;;;1.00;100.00
2000;BME280;1001;48.87406500;9.59633600;2023-01-24T02:57:34;96358.44;;;1.00;100.00
2000;BME280;1001;48.87406500;9.59633600;2023-01-24T03:00:20;96355.59;;;1.03;100.00
2000;BME280;1001;48.87406500;9.59633600;2023-01-24T03:02:47;96347.72;;;1.04;100.00
2000;BME280;1001;48.87406500;9.59633600;2023-01-24T03:05:13;96351.25;;;1.03;100.00
2000;BME280;1001;48.87406500;9.59633600;2023-01-24T03:07:40;96353.16;;;1.01;100.00
2000;BME280;1001;48.87406500;9.59633600;2023-01-24T03:10:10;96352.34;;;1.01;100.00
2000;BME280;1001;48.87406500;9.59633600;2023-01-24T03:12:37;96356.53;;;1.02;100.00
2000;BME280;1001;48.87406500;9.59633600;2023-01-24T03:15:23;96356.44;;;0.94;100.00
2000;BME280;1001;48.87406500;9.59633600;2023-01-24T03:18:07;96350.44;;;1.03;100.00
2000;BME280;1001;48.87406500;9.59633600;2023-01-24T03:20:51;96357.09;;;0.96;100.00
2000;BME280;1001;48.87406500;9.59633600;2023-01-24T03:23:36;96346.66;;;0.97;100.00
2000;BME280;1001;48.87406500;9.59633600;2023-01-24T03:26:20;96353.44;;;0.98;100.00
2000;BME280;1001;48.87406500;9.59633600;2023-01-24T03:29:05;96349.22;;;0.97;100.00
2000;BME280;1001;48.87406500;9.59633600;2023-01-24T03:31:50;96352.34;;;1.01;100.00
2000;BME280;1001;48.87406500;9.59633600;2023-01-24T03:34:34;96360.34;;;0.98;100.00
2000;BME280;1001;48.87406500;9.59633600;2023-01-24T03:37:11;96356.28;;;0.95;100.00
2000;BME280;1001;48.87406500;9.59633600;2023-01-24T03:39:37;96358.44;;;1.00;100.00
2000;BME280;1001;48.87406500;9.59633600;2023-01-24T03:42:24;96363.19;;;0.95;100.00
2000;BME280;1001;48.87406500;9.59633600;2023-01-24T03:44:52;96369.03;;;1.06;100.00
2000;BME280;1001;48.87406500;9.59633600;2023-01-24T03:47:20;96365.75;;;0.95;100.00
2000;BME280;1001;48.87406500;9.59633600;2023-01-24T03:49:46;96362.66;;;0.91;100.00
2000;BME280;1001;48.87406500;9.59633600;2023-01-24T03:52:31;96359.09;;;1.02;100.00
2000;BME280;1001;48.87406500;9.59633600;2023-01-24T03:54:58;96359.81;;;0.94;100.00
2000;BME280;1001;48.87406500;9.59633600;2023-01-24T03:57:26;96366.88;;;0.92;100.00
2000;BME280;1001;48.87406500;9.59633600;2023-01-24T03:59:52;96364.00;;;0.95;100.00
2000;BME280;1001;48.87406500;9.59633600;2023-01-24T04:02:20;96361.59;;;0.94;100.00
2000;BME280;1001;48.87406500;9.59633600;2023-01-24T04:04:47;96360.75;;;0.93;100.00
2000;BME280;1001;48.87406500;9.59633600;2023-01-24T04:07:31;96352.38;;;0.91;100.00
2000;BME280;1001;48.87406500;9.59633600;2023-01-24T04:09:58;96356.69;;;0.91;100.00
2000;BME280;1001;48.87406500;9.59633600;2023-01-24T04:12:25;96351.69;;;0.89;100.00
2000;BME280;1001;48.87406500;9.59633600;2023-01-24T04:14:51;96345.06;;;0.87;100.00
2000;BME280;1001;48.87406500;9.59633600;2023-01-24T04:17:18;96354.00;;;0.92;100.00
2000;BME280;1001;48.87406500;9.59633600;2023-01-24T04:19:46;96349.94;;;0.90;100.00
2000;BME280;1001;48.87406500;9.59633600;2023-01-24T04:22:14;96354.38;;;0.97;100.00
2000;BME280;1001;48.87406500;9.59633600;2023-01-24T04:24:42;96356.44;;;0.94;100.00
2000;BME280;1001;48.87406500;9.59633600;2023-01-24T04:27:09;96354.28;;;0.89;100.00
2000;BME280;1001;48.87406500;9.59633600;2023-01-24T04:29:35;96352.78;;;0.96;100.00
2000;BME280;1001;48.87406500;9.59633600;2023-01-24T04:32:02;96350.72;;;0.90;100.00
2000;BME280;1001;48.87406500;9.59633600;2023-01-24T04:34:29;96362.66;;;0.91;100.00
2000;BME280;1001;48.87406500;9.59633600;2023-01-24T04:36:57;96357.25;;;0.94;100.00
2000;BME280;1001;48.87406500;9.59633600;2023-01-24T04:39:24;96352.22;;;0.93;100.00
2000;BME280;1001;48.87406500;9.59633600;2023-01-24T04:41:51;96347.75;;;0.95;100.00
2000;BME280;1001;48.87406500;9.59633600;2023-01-24T04:44:17;96345.03;;;0.96;100.00
2000;BME280;1001;48.87406500;9.59633600;2023-01-24T04:46:44;96360.22;;;0.99;100.00
2000;BME280;1001;48.87406500;9.59633600;2023-01-24T04:49:10;96366.97;;;1.00;100.00
2000;BME280;1001;48.87406500;9.59633600;2023-01-24T04:51:37;96373.09;;;0.99;100.00
2000;BME280;1001;48.87406500;9.59633600;2023-01-24T04:54:08;96374.28;;;1.05;100.00
2000;BME280;1001;48.87406500;9.59633600;2023-01-24T04:56:35;96355.47;;;0.95;100.00
2000;BME280;1001;48.87406500;9.59633600;2023-01-24T04:59:02;96374.06;;;0.89;100.00
2000;BME280;1001;48.87406500;9.59633600;2023-01-24T05:01:28;96379.06;;;0.90;100.00
2000;BME280;1001;48.87406500;9.59633600;2023-01-24T05:03:55;96369.72;;;0.89;100.00
2000;BME280;1001;48.87406500;9.59633600;2023-01-24T05:06:24;96370.25;;;0.93;100.00
2000;BME280;1001;48.87406500;9.59633600;2023-01-24T05:08:51;96380.69;;;0.91;100.00
2000;BME280;1001;48.87406500;9.59633600;2023-01-24T05:11:19;96383.00;;;0.94;100.00
2000;BME280;1001;48.87406500;9.59633600;2023-01-24T05:13:45;96377.69;;;0.96;100.00
2000;BME280;1001;48.87406500;9.59633600;2023-01-24T05:16:12;96384.34;;;0.89;100.00
2000;BME280;1001;48.87406500;9.59633600;2023-01-24T05:18:39;96381.78;;;0.89;100.00
2000;BME280;1001;48.87406500;9.59633600;2023-01-24T05:21:06;96391.13;;;0.99;100.00
2000;BME280;1001;48.87406500;9.59633600;2023-01-24T05:23:33;96386.75;;;1.00;100.00
2000;BME280;1001;48.87406500;9.59633600;2023-01-24T05:26:00;96390.56;;;0.96;100.00
2000;BME280;1001;48.87406500;9.59633600;2023-01-24T05:28:28;96393.72;;;0.90;100.00
2000;BME280;1001;48.87406500;9.59633600;2023-01-24T05:30:58;96391.00;;;0.91;100.00
2000;BME280;1001;48.87406500;9.59633600;2023-01-24T05:33:24;96398.44;;;0.94;100.00
2000;BME280;1001;48.87406500;9.59633600;2023-01-24T05:35:56;96393.41;;;0.93;100.00
2000;BME280;1001;48.87406500;9.59633600;2023-01-24T05:38:23;96395.22;;;0.83;100.00
2000;BME280;1001;48.87406500;9.59633600;2023-01-24T05:40:49;96400.72;;;0.88;100.00
2000;BME280;1001;48.87406500;9.59633600;2023-01-24T05:43:16;96401.28;;;0.91;100.00
2000;BME280;1001;48.87406500;9.59633600;2023-01-24T05:45:44;96398.31;;;0.86;100.00
2000;BME280;1001;48.87406500;9.59633600;2023-01-24T05:48:10;96400.06;;;0.86;100.00
2000;BME280;1001;48.87406500;9.59633600;2023-01-24T05:50:37;96406.44;;;0.91;100.00
2000;BME280;1001;48.87406500;9.59633600;2023-01-24T05:53:04;96408.19;;;0.81;100.00
2000;BME280;1001;48.87406500;9.59633600;2023-01-24T05:55:30;96413.22;;;0.83;100.00
2000;BME280;1001;48.87406500;9.59633600;2023-01-24T05:57:58;96410.78;;;0.81;100.00
2000;BME280;1001;48.87406500;9.59633600;2023-01-24T06:00:24;96415.81;;;0.92;100.00
2000;BME280;1001;48.87406500;9.59633600;2023-01-24T06:02:52;96410.09;;;0.89;100.00
2000;BME280;1001;48.87406500;9.59633600;2023-01-24T06:05:19;96416.31;;;0.96;100.00
2000;BME280;1001;48.87406500;9.59633600;2023-01-24T06:07:46;96419.56;;;0.88;100.00
2000;BME280;1001;48.87406500;9.59633600;2023-01-24T06:10:13;96417.81;;;0.89;100.00
2000;BME280;1001;48.87406500;9.59633600;2023-01-24T06:12:39;96422.72;;;0.92;100.00
2000;BME280;1001;48.87406500;9.59633600;2023-01-24T06:15:07;96414.84;;;0.93;100.00
2000;BME280;1001;48.87406500;9.59633600;2023-01-24T06:17:33;96416.59;;;0.93;100.00
2000;BME280;1001;48.87406500;9.59633600;2023-01-24T06:20:02;96413.75;;;0.86;100.00
2000;BME280;1001;48.87406500;9.59633600;2023-01-24T06:22:34;96419.56;;;0.88;100.00
2000;BME280;1001;48.87406500;9.59633600;2023-01-24T06:25:03;96417.81;;;0.89;100.00
2000;BME280;1001;48.87406500;9.59633600;2023-01-24T06:27:30;96427.56;;;0.95;100.00
2000;BME280;1001;48.87406500;9.59633600;2023-01-24T06:29:57;96423.22;;;0.95;100.00
2000;BME280;1001;48.87406500;9.59633600;2023-01-24T06:32:32;96425.28;;;0.92;100.00
2000;BME280;1001;48.87406500;9.59633600;2023-01-24T06:35:13;96424.72;;;0.98;100.00
2000;BME280;1001;48.87406500;9.59633600;2023-01-24T06:37:44;96440.44;;;0.95;100.00
2000;BME280;1001;48.87406500;9.59633600;2023-01-24T06:40:14;96446.69;;;0.92;100.00
2000;BME280;1001;48.87406500;9.59633600;2023-01-24T06:42:42;96444.22;;;1.00;100.00
2000;BME280;1001;48.87406500;9.59633600;2023-01-24T06:45:09;96441.94;;;0.88;100.00
2000;BME280;1001;48.87406500;9.59633600;2023-01-24T06:47:36;96450.47;;;0.98;100.00
2000;BME280;1001;48.87406500;9.59633600;2023-01-24T06:50:04;96434.75;;;0.91;100.00
2000;BME280;1001;48.87406500;9.59633600;2023-01-24T06:52:34;96448.84;;;0.97;100.00
2000;BME280;1001;48.87406500;9.59633600;2023-01-24T06:55:01;96446.13;;;0.98;100.00
2000;BME280;1001;48.87406500;9.59633600;2023-01-24T06:57:27;96443.16;;;0.93;100.00
2000;BME280;1001;48.87406500;9.59633600;2023-01-24T06:59:54;96441.81;;;0.89;100.00
2000;BME280;1001;48.87406500;9.59633600;2023-01-24T07:02:20;96447.78;;;0.90;100.00
2000;BME280;1001;48.87406500;9.59633600;2023-01-24T07:04:47;96445.59;;;0.95;100.00
2000;BME280;1001;48.87406500;9.59633600;2023-01-24T07:07:13;96451.97;;;0.91;100.00
2000;BME280;1001;48.87406500;9.59633600;2023-01-24T07:09:41;96453.72;;;0.90;100.00
2000;BME280;1001;48.87406500;9.59633600;2023-01-24T07:12:08;96451.97;;;0.91;100.00
2000;BME280;1001;48.87406500;9.59633600;2023-01-24T07:14:34;96455.22;;;0.93;100.00
2000;BME280;1001;48.87406500;9.59633600;2023-01-24T07:17:01;96459.69;;;0.91;100.00
2000;BME280;1001;48.87406500;9.59633600;2023-01-24T07:19:29;96464.97;;;0.89;100.00
2000;BME280;1001;48.87406500;9.59633600;2023-01-24T07:21:56;96464.84;;;0.91;100.00
2000;BME280;1001;48.87406500;9.59633600;2023-01-24T07:24:25;96469.88;;;0.92;100.00
2000;BME280;1001;48.87406500;9.59633600;2023-01-24T07:26:54;96476.88;;;1.00;100.00
2000;BME280;1001;48.87406500;9.59633600;2023-01-24T07:29:21;96473.53;;;0.99;100.00
2000;BME280;1001;48.87406500;9.59633600;2023-01-24T07:31:48;96464.97;;;0.99;100.00
2000;BME280;1001;48.87406500;9.59633600;2023-01-24T07:34:15;96481.78;;;0.93;100.00
2000;BME280;1001;48.87406500;9.59633600;2023-01-24T07:36:43;96478.38;;;0.93;100.00
2000;BME280;1001;48.87406500;9.59633600;2023-01-24T07:39:09;96479.63;;;0.89;100.00
2000;BME280;1001;48.87406500;9.59633600;2023-01-24T07:41:36;96480.69;;;0.96;100.00
2000;BME280;1001;48.87406500;9.59633600;2023-01-24T07:44:05;96486.25;;;0.91;100.00
2000;BME280;1001;48.87406500;9.59633600;2023-01-24T07:46:32;96486.78;;;0.95;100.00
2000;BME280;1001;48.87406500;9.59633600;2023-01-24T07:48:59;96494.25;;;0.98;100.00
2000;BME280;1001;48.87406500;9.59633600;2023-01-24T07:51:26;96497.91;;;0.95;100.00
2000;BME280;1001;48.87406500;9.59633600;2023-01-24T07:53:52;96503.19;;;1.03;100.00
2000;BME280;1001;48.87406500;9.59633600;2023-01-24T07:56:19;96502.78;;;0.98;100.00
2000;BME280;1001;48.87406500;9.59633600;2023-01-24T07:58:46;96495.47;;;1.03;100.00
2000;BME280;1001;48.87406500;9.59633600;2023-01-24T08:01:17;96507.28;;;1.15;100.00
2000;BME280;1001;48.87406500;9.59633600;2023-01-24T08:03:43;96507.38;;;1.04;100.00
2000;BME280;1001;48.87406500;9.59633600;2023-01-24T08:06:10;96506.31;;;1.07;100.00
2000;BME280;1001;48.87406500;9.59633600;2023-01-24T08:08:36;96506.19;;;1.08;100.00
2000;BME280;1001;48.87406500;9.59633600;2023-01-24T08:11:03;96511.44;;;1.07;100.00
2000;BME280;1001;48.87406500;9.59633600;2023-01-24T08:13:30;96510.94;;;1.13;100.00
2000;BME280;1001;48.87406500;9.59633600;2023-01-24T08:15:58;96517.16;;;1.10;100.00
2000;BME280;1001;48.87406500;9.59633600;2023-01-24T08:18:26;96522.97;;;1.22;100.00
2000;BME280;1001;48.87406500;9.59633600;2023-01-24T08:20:54;96522.03;;;1.13;100.00
2000;BME280;1001;48.87406500;9.59633600;2023-01-24T08:23:21;96527.72;;;1.17;100.00
2000;BME280;1001;48.87406500;9.59633600;2023-01-24T08:25:48;96519.47;;;1.13;100.00
2000;BME280;1001;48.87406500;9.59633600;2023-01-24T08:28:14;96524.22;;;1.18;100.00
2000;BME280;1001;48.87406500;9.59633600;2023-01-24T08:30:41;96518.66;;;1.13;100.00
2000;BME280;1001;48.87406500;9.59633600;2023-01-24T08:33:08;96519.06;;;1.08;100.00
2000;BME280;1001;48.87406500;9.59633600;2023-01-24T08:35:37;96526.22;;;1.14;100.00
2000;BME280;1001;48.87406500;9.59633600;2023-01-24T08:38:04;96523.81;;;1.13;100.00
2000;BME280;1001;48.87406500;9.59633600;2023-01-24T08:40:30;96528.13;;;1.12;100.00
2000;BME280;1001;48.87406500;9.59633600;2023-01-24T08:42:59;96530.56;;;1.23;100.00
2000;BME280;1001;48.87406500;9.59633600;2023-01-24T08:45:26;96528.94;;;1.22;100.00
2000;BME280;1001;48.87406500;9.59633600;2023-01-24T08:47:53;96537.50;;;1.32;100.00
2000;BME280;1001;48.87406500;9.59633600;2023-01-24T08:50:20;96541.94;;;1.40;100.00
2000;BME280;1001;48.87406500;9.59633600;2023-01-24T08:52:48;96541.28;;;1.38;100.00
2000;BME280;1001;48.87406500;9.59633600;2023-01-24T08:55:15;96540.19;;;1.41;100.00
2000;BME280;1001;48.87406500;9.59633600;2023-01-24T08:57:42;96541.25;;;1.48;100.00
2000;BME280;1001;48.87406500;9.59633600;2023-01-24T09:00:09;96543.84;;;1.38;100.00
2000;BME280;1001;48.87406500;9.59633600;2023-01-24T09:02:36;96543.03;;;1.47;100.00
2000;BME280;1001;48.87406500;9.59633600;2023-01-24T09:05:04;96538.16;;;1.44;100.00
2000;BME280;1001;48.87406500;9.59633600;2023-01-24T09:07:31;96536.25;;;1.36;100.00
2000;BME280;1001;48.87406500;9.59633600;2023-01-24T09:09:59;96547.75;;;1.52;100.00
2000;BME280;1001;48.87406500;9.59633600;2023-01-24T09:12:25;96551.72;;;1.46;100.00
2000;BME280;1001;48.87406500;9.59633600;2023-01-24T09:14:52;96552.94;;;1.42;100.00
2000;BME280;1001;48.87406500;9.59633600;2023-01-24T09:17:18;96549.66;;;1.50;100.00
2000;BME280;1001;48.87406500;9.59633600;2023-01-24T09:19:45;96558.91;;;1.43;100.00
2000;BME280;1001;48.87406500;9.59633600;2023-01-24T09:22:11;96560.66;;;1.52;100.00
2000;BME280;1001;48.87406500;9.59633600;2023-01-24T09:24:38;96553.59;;;1.63;100.00
2000;BME280;1001;48.87406500;9.59633600;2023-01-24T09:27:06;96553.06;;;1.60;100.00
2000;BME280;1001;48.87406500;9.59633600;2023-01-24T09:29:32;96552.41;;;1.48;100.00
2000;BME280;1001;48.87406500;9.59633600;2023-01-24T09:31:59;96559.31;;;1.48;100.00
2000;BME280;1001;48.87406500;9.59633600;2023-01-24T09:34:25;96557.53;;;1.48;100.00
2000;BME280;1001;48.87406500;9.59633600;2023-01-24T09:36:52;96558.75;;;1.63;100.00
2000;BME280;1001;48.87406500;9.59633600;2023-01-24T09:39:18;96562.94;;;1.64;100.00
2000;BME280;1001;48.87406500;9.59633600;2023-01-24T09:41:53;96565.25;;;1.77;100.00
2000;BME280;1001;48.87406500;9.59633600;2023-01-24T09:44:31;96567.94;;;1.85;100.00
2000;BME280;1001;48.87406500;9.59633600;2023-01-24T09:47:13;96564.03;;;1.71;100.00
2000;BME280;1001;48.87406500;9.59633600;2023-01-24T09:49:45;96578.13;;;1.86;100.00
2000;BME280;1001;48.87406500;9.59633600;2023-01-24T09:52:21;96581.88;;;1.92;100.00
2000;BME280;1001;48.87406500;9.59633600;2023-01-24T09:54:54;96582.03;;;1.90;100.00
2000;BME280;1001;48.87406500;9.59633600;2023-01-24T09:57:26;96583.41;;;1.85;100.00
2000;BME280;1001;48.87406500;9.59633600;2023-01-24T09:59:58;96577.16;;;1.87;100.00
2000;BME280;1001;48.87406500;9.59633600;2023-01-24T10:02:29;96577.03;;;1.89;100.00
2000;BME280;1001;48.87406500;9.59633600;2023-01-24T10:04:55;96583.69;;;1.91;100.00
2000;BME280;1001;48.87406500;9.59633600;2023-01-24T10:07:44;96588.84;;;1.82;100.00
2000;BME280;1001;48.87406500;9.59633600;2023-01-24T10:10:25;96577.44;;;1.84;100.00
2000;BME280;1001;48.87406500;9.59633600;2023-01-24T10:13:02;96586.25;;;1.91;100.00
2000;BME280;1001;48.87406500;9.59633600;2023-01-24T10:15:42;96577.56;;;1.92;100.00
2000;BME280;1001;48.87406500;9.59633600;2023-01-24T10:18:35;96586.09;;;1.93;100.00
2000;BME280;1001;48.87406500;9.59633600;2023-01-24T10:21:24;96578.59;;;2.09;100.00
2000;BME280;1001;48.87406500;9.59633600;2023-01-24T10:23:56;96577.28;;;1.95;100.00
2000;BME280;1001;48.87406500;9.59633600;2023-01-24T10:26:32;96576.72;;;1.92;100.00
2000;BME280;1001;48.87406500;9.59633600;2023-01-24T10:29:14;96579.31;;;1.92;100.00
2000;BME280;1001;48.87406500;9.59633600;2023-01-24T10:31:46;96581.88;;;1.92;100.00
2000;BME280;1001;48.87406500;9.59633600;2023-01-24T10:34:20;96573.88;;;1.95;100.00
2000;BME280;1001;48.87406500;9.59633600;2023-01-24T10:36:54;96569.53;;;1.95;100.00
2000;BME280;1001;48.87406500;9.59633600;2023-01-24T10:39:23;96571.13;;;2.06;100.00
2000;BME280;1001;48.87406500;9.59633600;2023-01-24T10:41:51;96566.66;;;2.08;100.00
2000;BME280;1001;48.87406500;9.59633600;2023-01-24T10:44:23;96567.47;;;2.08;100.00
2000;BME280;1001;48.87406500;9.59633600;2023-01-24T10:47:27;96558.78;;;2.10;100.00
2000;BME280;1001;48.87406500;9.59633600;2023-01-24T10:50:06;96564.09;;;2.08;100.00
2000;BME280;1001;48.87406500;9.59633600;2023-01-24T10:52:33;96570.81;;;2.19;100.00
2000;BME280;1001;48.87406500;9.59633600;2023-01-24T10:55:01;96562.00;;;2.21;100.00
2000;BME280;1001;48.87406500;9.59633600;2023-01-24T10:57:33;96558.75;;;2.19;100.00
2000;BME280;1001;48.87406500;9.59633600;2023-01-24T11:00:04;96550.31;;;2.27;100.00
2000;BME280;1001;48.87406500;9.59633600;2023-01-24T11:02:33;96541.84;;;2.34;100.00
2000;BME280;1001;48.87406500;9.59633600;2023-01-24T11:05:02;96551.50;;;2.59;100.00
2000;BME280;1001;48.87406500;9.59633600;2023-01-24T11:07:32;96548.81;;;2.51;100.00
2000;BME280;1001;48.87406500;9.59633600;2023-01-24T11:09:59;96547.22;;;2.50;100.00
2000;BME280;1001;48.87406500;9.59633600;2023-01-24T11:12:27;96540.84;;;2.45;100.00
2000;BME280;1001;48.87406500;9.59633600;2023-01-24T11:14:54;96541.88;;;2.52;100.00
2000;BME280;1001;48.87406500;9.59633600;2023-01-24T11:17:34;96547.38;;;2.66;100.00
2000;BME280;1001;48.87406500;9.59633600;2023-01-24T11:20:09;96549.31;;;2.64;100.00
2000;BME280;1001;48.87406500;9.59633600;2023-01-24T11:22:49;96548.06;;;2.68;100.00
2000;BME280;1001;48.87406500;9.59633600;2023-01-24T11:25:18;96552.78;;;2.73;100.00
2000;BME280;1001;48.87406500;9.59633600;2023-01-24T11:27:46;96545.13;;;2.54;100.00
2000;BME280;1001;48.87406500;9.59633600;2023-01-24T11:30:18;96544.03;;;2.56;100.00
2000;BME280;1001;48.87406500;9.59633600;2023-01-24T11:32:55;96542.22;;;2.66;100.00
2000;BME280;1001;48.87406500;9.59633600;2023-01-24T11:35:31;96542.50;;;2.63;100.00
2000;BME280;1001;48.87406500;9.59633600;2023-01-24T11:38:11;96543.91;;;2.58;100.00
2000;BME280;1001;48.87406500;9.59633600;2023-01-24T11:40:42;96532.66;;;2.77;100.00
2000;BME280;1001;48.87406500;9.59633600;2023-01-24T11:43:21;96528.59;;;2.74;100.00
2000;BME280;1001;48.87406500;9.59633600;2023-01-24T11:46:08;96529.09;;;2.78;100.00
2000;BME280;1001;48.87406500;9.59633600;2023-01-24T11:48:44;96528.97;;;2.79;100.00
2000;BME280;1001;48.87406500;9.59633600;2023-01-24T11:51:19;96521.56;;;2.84;100.00
2000;BME280;1001;48.87406500;9.59633600;2023-01-24T11:54:18;96527.28;;;2.88;100.00
2000;BME280;1001;48.87406500;9.59633600;2023-01-24T11:56:52;96527.63;;;2.75;100.00